Praia Lusitana — CUHX4 — position and weather

sailwx.info

Track history (hours):
 
Tides and Currents Weather Stations Pressure Air Temp Water Temp Dewpoint Dewpoint Depression Visibility Wind Speed Wind Dir Waves Ship Positions

Praia Lusitana

Last reported at 2017-Nov-24 03:29 UTC. Time now 2017-Nov-25 09:47 UTC.
Position N 37°56' W 008°53'.

Length 18 m.

Type: Fishing. MMSI: 263413350.

Date/timePositionNaut miles runAvg speedWind from/ knotsBaromVisibWave heightAir tempDewpointWater temp
2017-Nov-24 03:29N 37°56' W 008°53'2 3.3
2017-Nov-24 03:00N 37°57' W 008°52'0 0.0
2017-Nov-24 02:30N 37°57' W 008°52'0 0.0
2017-Nov-24 02:00N 37°57' W 008°52'0 0.0
2017-Nov-24 01:30N 37°57' W 008°52'0 0.0
2017-Nov-24 01:00N 37°57' W 008°52'0 0.0
2017-Nov-24 00:30N 37°57' W 008°52'0 0.0
2017-Nov-24 00:01N 37°57' W 008°52'0 0.0
2017-Nov-23 23:30N 37°57' W 008°52'0 0.0
2017-Nov-23 23:00N 37°57' W 008°52'0 0.0
2017-Nov-23 22:30N 37°57' W 008°52'0 0.0
2017-Nov-23 22:00N 37°57' W 008°52'0 0.0
2017-Nov-23 21:30N 37°57' W 008°52'0 0.0
2017-Nov-23 21:00N 37°57' W 008°52'0 0.0
2017-Nov-23 20:30N 37°57' W 008°52'0 0.3
2017-Nov-23 20:00N 37°57' W 008°52'0 0.2
2017-Nov-23 19:30N 37°57' W 008°52'0 0.0
2017-Nov-23 19:00N 37°57' W 008°52'0 0.2
2017-Nov-23 18:30N 37°57' W 008°52'0 0.0
2017-Nov-23 18:00N 37°57' W 008°52'0 0.4
2017-Nov-23 17:30N 37°57' W 008°52'4 8.0
2017-Nov-23 17:00N 37°55' W 008°56'4 7.9
2017-Nov-23 16:30N 37°53' W 009°01'4 8.0
2017-Nov-23 16:00N 37°52' W 009°06'4 7.9
2017-Nov-23 15:30N 37°50' W 009°10'  
2017-Nov-19 18:06N 37°54' W 008°58'1 9.0
2017-Nov-19 18:00N 37°54' W 008°57'4 8.7
2017-Nov-19 17:30N 37°57' W 008°52'0 1.0
2017-Nov-19 17:00N 37°57' W 008°52'0 0.0
2017-Nov-19 16:30N 37°57' W 008°52'0 0.0
2017-Nov-19 16:00N 37°57' W 008°52'0 0.0
2017-Nov-19 15:30N 37°57' W 008°52'3 7.0
2017-Nov-19 15:00N 37°55' W 008°56'4 8.2
2017-Nov-19 14:30N 37°53' W 009°00'4 8.3
2017-Nov-19 14:00N 37°51' W 009°05'4 8.2
2017-Nov-19 13:30N 37°49' W 009°10'2 4.0
2017-Nov-19 13:00N 37°48' W 009°12'1 1.5
2017-Nov-19 12:30N 37°48' W 009°11'5 2.1
2017-Nov-19 10:11N 37°43' W 009°09'0 2.6
2017-Nov-19 10:00N 37°44' W 009°09'3 2.7
2017-Nov-19 08:43N 37°47' W 009°10'1 2.7
2017-Nov-19 08:17N 37°48' W 009°11'1 2.6
2017-Nov-19 08:00N 37°49' W 009°11'1 2.3
2017-Nov-19 07:30N 37°49' W 009°12'4 8.8
2017-Nov-19 07:00N 37°46' W 009°16'5 8.9
2017-Nov-19 06:30N 37°42' W 009°19'4 8.5
2017-Nov-19 05:58N 37°39' W 009°23'9 1.3
2017-Nov-18 23:07N 37°31' W 009°18'0 2.9
2017-Nov-18 23:00N 37°31' W 009°18'8 2.9
2017-Nov-18 20:11N 37°38' W 009°24'14 5.9
2017-Nov-18 17:52N 37°43' W 009°08'2 2.3
2017-Nov-18 17:00N 37°45' W 009°07'2 2.9
2017-Nov-18 16:28N 37°47' W 009°07'2 3.0
2017-Nov-18 15:57N 37°48' W 009°08'1 2.9
2017-Nov-18 15:30N 37°49' W 009°08'2 3.0
2017-Nov-18 15:00N 37°51' W 009°09'2 3.3
2017-Nov-18 14:30N 37°52' W 009°09'0 0.2
2017-Nov-18 13:55N 37°52' W 009°09'1 3.0
2017-Nov-18 13:30N 37°51' W 009°09'2 3.0
2017-Nov-18 13:00N 37°50' W 009°08'3 3.0
2017-Nov-18 12:03N 37°47' W 009°07'0 3.0
2017-Nov-18 12:00N 37°47' W 009°07'1 2.9
2017-Nov-18 11:30N 37°45' W 009°07'3 1.8
2017-Nov-18 10:08N 37°43' W 009°08'0 1.0
2017-Nov-18 09:59N 37°43' W 009°08'8 2.7
2017-Nov-18 07:05N 37°51' W 009°09'0 3.0
2017-Nov-18 07:00N 37°51' W 009°09'2 3.0
2017-Nov-18 06:21N 37°53' W 009°09'6 0.9
2017-Nov-18 00:27N 37°56' W 009°15'2 4.4
2017-Nov-18 00:00N 37°58' W 009°14'1 0.9
2017-Nov-17 23:18N 37°58' W 009°14'3 3.2
2017-Nov-17 22:20N 37°54' W 009°15'1 3.2
2017-Nov-17 22:00N 37°53' W 009°15'2 3.4
2017-Nov-17 21:30N 37°52' W 009°15'2 3.4
2017-Nov-17 20:58N 37°50' W 009°16'2 3.4
2017-Nov-17 20:30N 37°48' W 009°16'2 3.3
2017-Nov-17 20:00N 37°47' W 009°16'2 3.2
2017-Nov-17 19:30N 37°45' W 009°16'6 4.2
2017-Nov-17 18:00N 37°43' W 009°08'3 2.3
2017-Nov-17 16:45N 37°46' W 009°07'3 3.0
2017-Nov-17 15:55N 37°48' W 009°08'1 3.0
2017-Nov-17 15:30N 37°49' W 009°08'1 2.9
2017-Nov-17 15:00N 37°51' W 009°09'2 3.3
2017-Nov-17 14:30N 37°53' W 009°09'0 0.2
2017-Nov-17 14:00N 37°53' W 009°09'2 3.1
2017-Nov-17 13:30N 37°51' W 009°09'2 3.1
2017-Nov-17 13:00N 37°50' W 009°08'2 3.0
2017-Nov-17 12:30N 37°48' W 009°08'2 3.0
2017-Nov-17 11:53N 37°46' W 009°07'1 2.9
2017-Nov-17 11:30N 37°45' W 009°07'4 1.1
2017-Nov-17 07:42N 37°49' W 009°08'1 3.0
2017-Nov-17 07:30N 37°50' W 009°08'2 3.0
2017-Nov-17 07:00N 37°51' W 009°09'2 3.0
2017-Nov-17 06:28N 37°53' W 009°09'4 4.7
2017-Nov-17 05:37N 37°54' W 009°04'1 6.3
2017-Nov-17 05:30N 37°54' W 009°03'3 6.0
2017-Nov-17 05:00N 37°55' W 008°60'3 5.9
2017-Nov-17 04:30N 37°55' W 008°56'3 6.0
2017-Nov-17 04:00N 37°57' W 008°52'1 1.1
2017-Nov-17 03:30N 37°57' W 008°52'0 0.0
2017-Nov-17 03:00N 37°57' W 008°52'0 0.0
2017-Nov-17 02:30N 37°57' W 008°52'0 0.0
2017-Nov-17 02:00N 37°57' W 008°52'0 0.0
2017-Nov-17 01:30N 37°57' W 008°52'0 0.0
2017-Nov-17 01:00N 37°57' W 008°52'0 0.0
2017-Nov-17 00:30N 37°57' W 008°52'0 0.0
2017-Nov-17 00:00N 37°57' W 008°52'0 0.0
2017-Nov-16 23:30N 37°57' W 008°52'0 0.0
2017-Nov-16 23:00N 37°57' W 008°52'0 0.0
2017-Nov-16 22:30N 37°57' W 008°52'0 0.0
2017-Nov-16 22:00N 37°57' W 008°52'0 0.0
2017-Nov-16 21:30N 37°57' W 008°52'0 0.0
2017-Nov-16 21:00N 37°57' W 008°52'0 0.0
2017-Nov-16 20:30N 37°57' W 008°52'1 2.7
2017-Nov-16 20:00N 37°56' W 008°53'4 8.2
2017-Nov-16 19:30N 37°56' W 008°58'4 8.2
2017-Nov-16 19:00N 37°56' W 009°04'4 8.5
2017-Nov-16 18:29N 37°56' W 009°09'5 2.6
2017-Nov-16 16:37N 37°54' W 009°14'0 2.6
2017-Nov-16 16:29N 37°53' W 009°14'1 2.8
2017-Nov-16 16:00N 37°52' W 009°14'1 2.8
2017-Nov-16 15:30N 37°51' W 009°15'2 2.7
2017-Nov-16 14:56N 37°49' W 009°15'1 2.7
2017-Nov-16 14:30N 37°48' W 009°15'19 0.6
2017-Nov-15 04:00N 37°56' W 008°53'1 2.8
2017-Nov-15 03:30N 37°57' W 008°52'0 0.0
2017-Nov-15 03:00N 37°57' W 008°52'0 0.0
2017-Nov-15 02:31N 37°57' W 008°52'0 0.0
2017-Nov-15 02:00N 37°57' W 008°52'0 0.0
2017-Nov-15 01:30N 37°57' W 008°52'0 0.0
2017-Nov-15 01:00N 37°57' W 008°52'0 0.0
2017-Nov-15 00:30N 37°57' W 008°52'0 0.0
2017-Nov-15 00:01N 37°57' W 008°52'0 0.0
2017-Nov-14 23:30N 37°57' W 008°52'0 0.0
2017-Nov-14 23:00N 37°57' W 008°52'0 0.0
2017-Nov-14 22:30N 37°57' W 008°52'0 0.0
2017-Nov-14 22:00N 37°57' W 008°52'0 0.0
2017-Nov-14 21:30N 37°57' W 008°52'0 0.0
2017-Nov-14 21:00N 37°57' W 008°52'2 3.3
2017-Nov-14 20:31N 37°56' W 008°53'4 7.9
2017-Nov-14 20:00N 37°56' W 008°59'4 8.5
2017-Nov-14 19:30N 37°57' W 009°04'4 8.3
2017-Nov-14 19:00N 37°57' W 009°09'3 5.4
2017-Nov-14 18:26N 37°57' W 009°13'  
Track history (hours):
 
Tides and Currents Weather Stations Pressure Air Temp Water Temp Dewpoint Dewpoint Depression Visibility Wind Speed Wind Dir Waves Ship Positions

Praia Lusitana

Last reported at 2017-Nov-24 03:29 UTC. Time now 2017-Nov-25 09:47 UTC.
Position N 37°56' W 008°53'.

Length 18 m.

Type: Fishing. MMSI: 263413350.

Date/timePositionNaut miles runAvg speedWind from/ knotsBaromVisibWave heightAir tempDewpointWater temp
2017-Nov-24 03:29N 37°56' W 008°53'2 3.3
2017-Nov-24 03:00N 37°57' W 008°52'0 0.0
2017-Nov-24 02:30N 37°57' W 008°52'0 0.0
2017-Nov-24 02:00N 37°57' W 008°52'0 0.0
2017-Nov-24 01:30N 37°57' W 008°52'0 0.0
2017-Nov-24 01:00N 37°57' W 008°52'0 0.0
2017-Nov-24 00:30N 37°57' W 008°52'0 0.0
2017-Nov-24 00:01N 37°57' W 008°52'0 0.0
2017-Nov-23 23:30N 37°57' W 008°52'0 0.0
2017-Nov-23 23:00N 37°57' W 008°52'0 0.0
2017-Nov-23 22:30N 37°57' W 008°52'0 0.0
2017-Nov-23 22:00N 37°57' W 008°52'0 0.0
2017-Nov-23 21:30N 37°57' W 008°52'0 0.0
2017-Nov-23 21:00N 37°57' W 008°52'0 0.0
2017-Nov-23 20:30N 37°57' W 008°52'0 0.3
2017-Nov-23 20:00N 37°57' W 008°52'0 0.2
2017-Nov-23 19:30N 37°57' W 008°52'0 0.0
2017-Nov-23 19:00N 37°57' W 008°52'0 0.2
2017-Nov-23 18:30N 37°57' W 008°52'0 0.0
2017-Nov-23 18:00N 37°57' W 008°52'0 0.4
2017-Nov-23 17:30N 37°57' W 008°52'4 8.0
2017-Nov-23 17:00N 37°55' W 008°56'4 7.9
2017-Nov-23 16:30N 37°53' W 009°01'4 8.0
2017-Nov-23 16:00N 37°52' W 009°06'4 7.9
2017-Nov-23 15:30N 37°50' W 009°10'  
2017-Nov-19 18:06N 37°54' W 008°58'1 9.0
2017-Nov-19 18:00N 37°54' W 008°57'4 8.7
2017-Nov-19 17:30N 37°57' W 008°52'0 1.0
2017-Nov-19 17:00N 37°57' W 008°52'0 0.0
2017-Nov-19 16:30N 37°57' W 008°52'0 0.0
2017-Nov-19 16:00N 37°57' W 008°52'0 0.0
2017-Nov-19 15:30N 37°57' W 008°52'3 7.0
2017-Nov-19 15:00N 37°55' W 008°56'4 8.2
2017-Nov-19 14:30N 37°53' W 009°00'4 8.3
2017-Nov-19 14:00N 37°51' W 009°05'4 8.2
2017-Nov-19 13:30N 37°49' W 009°10'2 4.0
2017-Nov-19 13:00N 37°48' W 009°12'1 1.5
2017-Nov-19 12:30N 37°48' W 009°11'5 2.1
2017-Nov-19 10:11N 37°43' W 009°09'0 2.6
2017-Nov-19 10:00N 37°44' W 009°09'3 2.7
2017-Nov-19 08:43N 37°47' W 009°10'1 2.7
2017-Nov-19 08:17N 37°48' W 009°11'1 2.6
2017-Nov-19 08:00N 37°49' W 009°11'1 2.3
2017-Nov-19 07:30N 37°49' W 009°12'4 8.8
2017-Nov-19 07:00N 37°46' W 009°16'5 8.9
2017-Nov-19 06:30N 37°42' W 009°19'4 8.5
2017-Nov-19 05:58N 37°39' W 009°23'9 1.3
2017-Nov-18 23:07N 37°31' W 009°18'0 2.9
2017-Nov-18 23:00N 37°31' W 009°18'8 2.9
2017-Nov-18 20:11N 37°38' W 009°24'14 5.9
2017-Nov-18 17:52N 37°43' W 009°08'2 2.3
2017-Nov-18 17:00N 37°45' W 009°07'2 2.9
2017-Nov-18 16:28N 37°47' W 009°07'2 3.0
2017-Nov-18 15:57N 37°48' W 009°08'1 2.9
2017-Nov-18 15:30N 37°49' W 009°08'2 3.0
2017-Nov-18 15:00N 37°51' W 009°09'2 3.3
2017-Nov-18 14:30N 37°52' W 009°09'0 0.2
2017-Nov-18 13:55N 37°52' W 009°09'1 3.0
2017-Nov-18 13:30N 37°51' W 009°09'2 3.0
2017-Nov-18 13:00N 37°50' W 009°08'3 3.0
2017-Nov-18 12:03N 37°47' W 009°07'0 3.0
2017-Nov-18 12:00N 37°47' W 009°07'1 2.9
2017-Nov-18 11:30N 37°45' W 009°07'3 1.8
2017-Nov-18 10:08N 37°43' W 009°08'0 1.0
2017-Nov-18 09:59N 37°43' W 009°08'8 2.7
2017-Nov-18 07:05N 37°51' W 009°09'0 3.0
2017-Nov-18 07:00N 37°51' W 009°09'2 3.0
2017-Nov-18 06:21N 37°53' W 009°09'6 0.9
2017-Nov-18 00:27N 37°56' W 009°15'2 4.4
2017-Nov-18 00:00N 37°58' W 009°14'1 0.9
2017-Nov-17 23:18N 37°58' W 009°14'3 3.2
2017-Nov-17 22:20N 37°54' W 009°15'1 3.2
2017-Nov-17 22:00N 37°53' W 009°15'2 3.4
2017-Nov-17 21:30N 37°52' W 009°15'2 3.4
2017-Nov-17 20:58N 37°50' W 009°16'2 3.4
2017-Nov-17 20:30N 37°48' W 009°16'2 3.3
2017-Nov-17 20:00N 37°47' W 009°16'2 3.2
2017-Nov-17 19:30N 37°45' W 009°16'6 4.2
2017-Nov-17 18:00N 37°43' W 009°08'3 2.3
2017-Nov-17 16:45N 37°46' W 009°07'3 3.0
2017-Nov-17 15:55N 37°48' W 009°08'1 3.0
2017-Nov-17 15:30N 37°49' W 009°08'1 2.9
2017-Nov-17 15:00N 37°51' W 009°09'2 3.3
2017-Nov-17 14:30N 37°53' W 009°09'0 0.2
2017-Nov-17 14:00N 37°53' W 009°09'2 3.1
2017-Nov-17 13:30N 37°51' W 009°09'2 3.1
2017-Nov-17 13:00N 37°50' W 009°08'2 3.0
2017-Nov-17 12:30N 37°48' W 009°08'2 3.0
2017-Nov-17 11:53N 37°46' W 009°07'1 2.9
2017-Nov-17 11:30N 37°45' W 009°07'4 1.1
2017-Nov-17 07:42N 37°49' W 009°08'1 3.0
2017-Nov-17 07:30N 37°50' W 009°08'2 3.0
2017-Nov-17 07:00N 37°51' W 009°09'2 3.0
2017-Nov-17 06:28N 37°53' W 009°09'4 4.7
2017-Nov-17 05:37N 37°54' W 009°04'1 6.3
2017-Nov-17 05:30N 37°54' W 009°03'3 6.0
2017-Nov-17 05:00N 37°55' W 008°60'3 5.9
2017-Nov-17 04:30N 37°55' W 008°56'3 6.0
2017-Nov-17 04:00N 37°57' W 008°52'1 1.1
2017-Nov-17 03:30N 37°57' W 008°52'0 0.0
2017-Nov-17 03:00N 37°57' W 008°52'0 0.0
2017-Nov-17 02:30N 37°57' W 008°52'0 0.0
2017-Nov-17 02:00N 37°57' W 008°52'0 0.0
2017-Nov-17 01:30N 37°57' W 008°52'0 0.0
2017-Nov-17 01:00N 37°57' W 008°52'0 0.0
2017-Nov-17 00:30N 37°57' W 008°52'0 0.0
2017-Nov-17 00:00N 37°57' W 008°52'0 0.0
2017-Nov-16 23:30N 37°57' W 008°52'0 0.0
2017-Nov-16 23:00N 37°57' W 008°52'0 0.0
2017-Nov-16 22:30N 37°57' W 008°52'0 0.0
2017-Nov-16 22:00N 37°57' W 008°52'0 0.0
2017-Nov-16 21:30N 37°57' W 008°52'0 0.0
2017-Nov-16 21:00N 37°57' W 008°52'0 0.0
2017-Nov-16 20:30N 37°57' W 008°52'1 2.7
2017-Nov-16 20:00N 37°56' W 008°53'4 8.2
2017-Nov-16 19:30N 37°56' W 008°58'4 8.2
2017-Nov-16 19:00N 37°56' W 009°04'4 8.5
2017-Nov-16 18:29N 37°56' W 009°09'5 2.6
2017-Nov-16 16:37N 37°54' W 009°14'0 2.6
2017-Nov-16 16:29N 37°53' W 009°14'1 2.8
2017-Nov-16 16:00N 37°52' W 009°14'1 2.8
2017-Nov-16 15:30N 37°51' W 009°15'2 2.7
2017-Nov-16 14:56N 37°49' W 009°15'1 2.7
2017-Nov-16 14:30N 37°48' W 009°15'19 0.6
2017-Nov-15 04:00N 37°56' W 008°53'1 2.8
2017-Nov-15 03:30N 37°57' W 008°52'0 0.0
2017-Nov-15 03:00N 37°57' W 008°52'0 0.0
2017-Nov-15 02:31N 37°57' W 008°52'0 0.0
2017-Nov-15 02:00N 37°57' W 008°52'0 0.0
2017-Nov-15 01:30N 37°57' W 008°52'0 0.0
2017-Nov-15 01:00N 37°57' W 008°52'0 0.0
2017-Nov-15 00:30N 37°57' W 008°52'0 0.0
2017-Nov-15 00:01N 37°57' W 008°52'0 0.0
2017-Nov-14 23:30N 37°57' W 008°52'0 0.0
2017-Nov-14 23:00N 37°57' W 008°52'0 0.0
2017-Nov-14 22:30N 37°57' W 008°52'0 0.0
2017-Nov-14 22:00N 37°57' W 008°52'0 0.0
2017-Nov-14 21:30N 37°57' W 008°52'0 0.0
2017-Nov-14 21:00N 37°57' W 008°52'2 3.3
2017-Nov-14 20:31N 37°56' W 008°53'4 7.9
2017-Nov-14 20:00N 37°56' W 008°59'4 8.5
2017-Nov-14 19:30N 37°57' W 009°04'4 8.3
2017-Nov-14 19:00N 37°57' W 009°09'3 5.4
2017-Nov-14 18:26N 37°57' W 009°13'  

Dump ship's entire track history